Time;durP1;ratioP1;P1;durP2;ratioP2;P2;SDS_P1;SDS_P2;PMS_P1;PMS_P2;Temp;Humidity;BMP_temperature;BMP_pressure;BME280_temperature;BME280_humidity;BME280_pressure;Samples;Min_cycle;Max_cycle;Signal;HPM_P1;HPM_P2
2021/12/21 00:00:34;;;;;;;15.77;6.78;;;-3.70;98.00;;;;;;5094805;28;20020;-76
2021/12/21 00:03:00;;;;;;;15.32;5.82;;;-3.80;98.00;;;;;;5093008;28;20024;-75
2021/12/21 00:05:29;;;;;;;20.60;8.25;;;-3.80;98.00;;;;;;5093718;28;20427;-76
2021/12/21 00:07:57;;;;;;;14.27;6.65;;;-3.90;98.00;;;;;;5091956;28;20028;-76
2021/12/21 00:10:26;;;;;;;15.43;6.60;;;-3.90;98.00;;;;;;5094620;28;20024;-75
2021/12/21 00:15:54;;;;;;;19.52;7.38;;;-4.10;98.00;;;;;;5094662;28;20031;-75
2021/12/21 00:20:54;;;;;;;14.07;6.88;;;-4.20;98.00;;;;;;5094248;28;20443;-75
2021/12/21 00:23:40;;;;;;;17.50;6.65;;;-4.20;98.00;;;;;;5089983;28;20024;-75
2021/12/21 00:26:14;;;;;;;16.83;6.40;;;-4.10;98.00;;;;;;5091955;28;20031;-76
2021/12/21 00:31:18;;;;;;;19.05;7.20;;;-4.10;98.00;;;;;;5091450;28;20028;-75
2021/12/21 00:33:46;;;;;;;15.32;7.60;;;-4.30;98.00;;;;;;5091654;28;20020;-75
2021/12/21 00:36:13;;;;;;;17.85;7.15;;;-4.40;98.00;;;;;;5094160;28;20107;-74
2021/12/21 00:38:43;;;;;;;17.83;6.90;;;-4.50;98.00;;;;;;5093089;28;20027;-75
2021/12/21 00:41:09;;;;;;;17.73;8.00;;;-4.50;98.00;;;;;;5092374;28;20021;-74
2021/12/21 00:43:35;;;;;;;15.23;6.88;;;-4.40;98.00;;;;;;5094534;28;20020;-74
2021/12/21 00:46:01;;;;;;;20.05;8.02;;;-4.40;98.00;;;;;;5093388;28;20293;-76
2021/12/21 00:48:29;;;;;;;20.13;7.10;;;-4.40;98.00;;;;;;5091748;28;20032;-74
2021/12/21 00:50:57;;;;;;;19.08;7.97;;;-4.40;98.00;;;;;;5094146;28;20031;-77
2021/12/21 00:53:24;;;;;;;18.70;8.07;;;-4.40;98.00;;;;;;5089571;28;20048;-75
2021/12/21 00:55:50;;;;;;;19.65;8.10;;;-4.40;98.00;;;;;;5092945;28;20020;-75
2021/12/21 00:58:17;;;;;;;16.05;7.50;;;-4.20;98.00;;;;;;5094158;28;20023;-75
2021/12/21 01:00:43;;;;;;;22.45;8.82;;;-4.10;98.00;;;;;;5094195;28;20027;-76
2021/12/21 01:03:12;;;;;;;17.52;7.05;;;-4.20;98.00;;;;;;5094356;28;20032;-75
2021/12/21 01:08:19;;;;;;;23.88;8.48;;;-4.30;98.00;;;;;;5088555;28;20032;-75
2021/12/21 01:14:01;;;;;;;15.50;6.80;;;-4.20;98.00;;;;;;5075857;28;20025;-75
2021/12/21 01:19:28;;;;;;;22.60;8.27;;;-4.20;98.00;;;;;;5082418;28;20032;-75
2021/12/21 01:27:29;;;;;;;17.63;7.18;;;-4.10;98.00;;;;;;5091338;28;20093;-75
2021/12/21 01:32:37;;;;;;;21.13;7.55;;;-4.00;98.00;;;;;;5096811;28;19958;-76
2021/12/21 01:35:13;;;;;;;21.98;8.30;;;-4.10;98.00;;;;;;5096634;28;20075;-75
2021/12/21 01:37:59;;;;;;;19.00;7.38;;;-4.20;98.00;;;;;;5096116;28;20054;-76
2021/12/21 01:50:52;;;;;;;20.67;8.48;;;-4.50;98.00;;;;;;5094040;28;20022;-75
2021/12/21 01:53:18;;;;;;;18.92;8.55;;;-4.60;98.00;;;;;;5095926;28;20478;-74
2021/12/21 01:55:44;;;;;;;15.98;8.18;;;-4.50;98.00;;;;;;5095816;28;20032;-75
2021/12/21 01:58:10;;;;;;;19.65;8.30;;;-4.60;98.00;;;;;;5096825;28;20032;-74
2021/12/21 02:00:37;;;;;;;21.20;8.05;;;-4.60;98.00;;;;;;5095661;28;20077;-76
2021/12/21 02:03:03;;;;;;;22.40;9.52;;;-4.60;98.00;;;;;;5096426;28;20059;-75
2021/12/21 02:05:29;;;;;;;17.10;7.68;;;-4.50;98.00;;;;;;5094971;28;20028;-75
2021/12/21 02:07:55;;;;;;;18.35;8.18;;;-4.50;98.00;;;;;;5091251;28;20024;-75
2021/12/21 02:10:21;;;;;;;16.88;7.85;;;-4.60;98.00;;;;;;5095987;28;20424;-75
2021/12/21 02:12:46;;;;;;;22.20;8.70;;;-4.60;98.00;;;;;;5097034;28;20047;-75
2021/12/21 02:15:12;;;;;;;22.58;8.85;;;-4.70;98.00;;;;;;5096098;28;20023;-75
2021/12/21 02:18:20;;;;;;;22.30;9.82;;;-4.70;98.00;;;;;;5093413;28;20290;-75
2021/12/21 02:20:51;;;;;;;26.08;10.55;;;-4.60;98.00;;;;;;5094035;28;20024;-76
2021/12/21 02:23:25;;;;;;;20.58;9.98;;;-4.50;98.00;;;;;;5095564;28;20092;-76
2021/12/21 02:26:04;;;;;;;21.00;9.65;;;-4.50;98.00;;;;;;5094184;28;20020;-75
2021/12/21 02:30:57;;;;;;;22.65;11.65;;;-4.50;98.00;;;;;;5094343;28;20107;-74
2021/12/21 02:33:25;;;;;;;31.08;12.63;;;-4.60;98.00;;;;;;5090407;28;20421;-76
2021/12/21 02:35:52;;;;;;;24.65;10.75;;;-4.60;98.00;;;;;;5078728;28;20107;-77
2021/12/21 02:38:17;;;;;;;25.50;11.60;;;-4.60;98.00;;;;;;5086462;28;20024;-76
2021/12/21 02:40:44;;;;;;;24.25;11.50;;;-4.50;97.60;;;;;;5096465;28;20443;-76
2021/12/21 02:43:10;;;;;;;23.63;10.82;;;-4.40;98.00;;;;;;5092203;28;20031;-76
2021/12/21 02:45:38;;;;;;;30.40;13.93;;;-4.50;98.00;;;;;;5095084;28;20024;-76
2021/12/21 02:48:04;;;;;;;28.10;11.95;;;-4.60;98.00;;;;;;5095184;28;20081;-76
2021/12/21 02:50:29;;;;;;;22.00;10.20;;;-4.70;98.00;;;;;;5095797;28;21491;-75
2021/12/21 02:52:55;;;;;;;21.67;9.55;;;-4.70;98.00;;;;;;5087302;28;20043;-75
2021/12/21 02:55:21;;;;;;;21.17;9.07;;;-4.70;98.00;;;;;;5094970;28;20012;-74
2021/12/21 02:57:47;;;;;;;19.45;9.48;;;-4.70;98.00;;;;;;5084968;28;20025;-75
2021/12/21 03:00:14;;;;;;;24.33;10.38;;;-4.80;98.00;;;;;;5093418;28;20032;-76
2021/12/21 03:02:40;;;;;;;21.90;9.40;;;-4.80;98.00;;;;;;5089788;28;20033;-78
2021/12/21 03:05:06;;;;;;;27.52;11.18;;;-4.90;98.00;;;;;;5090675;28;20063;-76
2021/12/21 03:10:22;;;;;;;;;;;-5.10;98.00;;;;;;5090356;28;20043;-75
2021/12/21 03:15:18;;;;;;;21.70;9.85;;;-5.20;98.00;;;;;;5094904;28;20077;-76
2021/12/21 03:17:43;;;;;;;24.42;11.15;;;-5.10;98.00;;;;;;5095683;28;20371;-76
2021/12/21 03:20:10;;;;;;;20.80;10.18;;;-5.10;98.00;;;;;;5094482;28;20024;-75
2021/12/21 03:22:35;;;;;;;23.90;10.43;;;-5.00;98.00;;;;;;5094079;28;20081;-75
2021/12/21 03:25:01;;;;;;;29.02;12.50;;;-5.00;98.00;;;;;;5096344;28;20032;-76
2021/12/21 03:27:27;;;;;;;25.33;12.43;;;-5.00;98.00;;;;;;5096082;28;20067;-75
2021/12/21 03:29:52;;;;;;;23.50;10.88;;;-4.80;98.00;;;;;;5094605;28;20067;-74
2021/12/21 03:32:18;;;;;;;21.20;10.00;;;-4.70;98.00;;;;;;5095888;28;20437;-74
2021/12/21 03:34:44;;;;;;;50.33;20.02;;;-4.90;98.00;;;;;;5095577;28;20024;-73
2021/12/21 03:37:12;;;;;;;35.75;15.52;;;-4.90;98.00;;;;;;5094598;28;20016;-73
2021/12/21 03:39:43;;;;;;;29.90;12.07;;;-5.00;98.00;;;;;;5091950;28;20325;-73
2021/12/21 03:42:10;;;;;;;33.22;14.68;;;-5.00;98.00;;;;;;5093481;28;20111;-75
2021/12/21 03:44:36;;;;;;;31.75;13.23;;;-5.10;98.00;;;;;;5095601;28;20028;-76
2021/12/21 03:47:03;;;;;;;29.15;13.25;;;-5.10;98.00;;;;;;5094973;28;20447;-76
2021/12/21 03:49:53;;;;;;;35.90;13.82;;;-5.20;98.00;;;;;;5095501;28;20443;-75
2021/12/21 03:52:20;;;;;;;25.23;11.25;;;-5.30;98.00;;;;;;5093724;28;20027;-75
2021/12/21 03:54:50;;;;;;;33.72;13.00;;;-5.40;98.00;;;;;;5095664;28;20153;-75
2021/12/21 03:57:16;;;;;;;28.30;12.95;;;-5.50;98.00;;;;;;5094437;28;20141;-75
2021/12/21 03:59:44;;;;;;;25.67;12.50;;;-5.40;98.00;;;;;;5094539;28;20081;-74
2021/12/21 04:02:11;;;;;;;22.13;11.10;;;-5.30;98.00;;;;;;5095281;28;20038;-75
2021/12/21 04:04:38;;;;;;;28.70;11.57;;;-5.30;98.00;;;;;;5095969;28;20070;-74
2021/12/21 04:07:04;;;;;;;26.13;12.50;;;-5.30;98.00;;;;;;5093099;28;20032;-76
2021/12/21 04:09:30;;;;;;;33.97;12.48;;;-5.40;98.00;;;;;;5094851;28;20467;-76
2021/12/21 04:11:57;;;;;;;22.42;9.60;;;-5.40;98.00;;;;;;5094458;28;20055;-75
2021/12/21 04:14:23;;;;;;;24.90;11.90;;;-5.50;98.00;;;;;;5094570;28;20324;-75
2021/12/21 04:16:49;;;;;;;20.13;10.00;;;-5.40;98.00;;;;;;5094471;28;20024;-75
2021/12/21 04:19:17;;;;;;;18.80;10.00;;;-5.50;98.00;;;;;;5094612;28;20085;-75
2021/12/21 04:21:43;;;;;;;23.58;12.10;;;-5.50;98.00;;;;;;5094787;28;20022;-75
2021/12/21 04:24:08;;;;;;;18.40;10.02;;;-5.60;98.00;;;;;;5094601;28;20020;-75
2021/12/21 04:26:34;;;;;;;16.92;10.10;;;-5.60;98.00;;;;;;5094431;28;20112;-76
2021/12/21 04:29:00;;;;;;;23.50;11.65;;;-5.80;98.00;;;;;;5095663;28;20336;-75
2021/12/21 04:31:25;;;;;;;24.55;11.20;;;-5.80;98.00;;;;;;5095262;28;20020;-76
2021/12/21 04:33:51;;;;;;;19.67;9.85;;;-5.80;98.00;;;;;;5094277;28;20024;-74
2021/12/21 04:36:17;;;;;;;21.85;10.15;;;-5.80;98.00;;;;;;5095213;28;20020;-74
2021/12/21 04:38:47;;;;;;;22.48;10.52;;;-5.90;98.00;;;;;;5093785;28;20024;-75
2021/12/21 04:43:40;;;;;;;18.15;10.60;;;-5.90;98.00;;;;;;5094840;28;20440;-75
2021/12/21 04:46:06;;;;;;;18.40;10.80;;;-6.00;98.00;;;;;;5094766;28;20367;-74
2021/12/21 04:48:32;;;;;;;27.88;11.90;;;-6.00;98.00;;;;;;5095266;28;20107;-76
2021/12/21 04:50:58;;;;;;;21.55;12.15;;;-5.90;98.00;;;;;;5095482;28;20059;-75
2021/12/21 04:53:24;;;;;;;26.73;12.68;;;-5.80;98.00;;;;;;5093343;28;20012;-76
2021/12/21 04:55:51;;;;;;;24.50;13.80;;;-5.80;98.00;;;;;;5094127;28;20409;-75
2021/12/21 04:58:17;;;;;;;25.02;12.60;;;-5.80;98.00;;;;;;5094536;28;20023;-75
2021/12/21 05:00:43;;;;;;;23.40;11.73;;;-5.80;98.00;;;;;;5093906;28;20510;-75
2021/12/21 05:03:08;;;;;;;26.98;12.00;;;-5.90;98.00;;;;;;5094041;28;20028;-75
2021/12/21 05:05:34;;;;;;;26.27;12.20;;;-5.90;98.00;;;;;;5097495;28;20024;-77
2021/12/21 05:08:13;;;;;;;24.63;12.65;;;-5.80;98.00;;;;;;5097874;28;20032;-75
2021/12/21 05:10:49;;;;;;;24.23;11.93;;;-5.80;98.00;;;;;;5095678;28;21276;-76
2021/12/21 05:13:16;;;;;;;26.83;13.20;;;-5.80;98.00;;;;;;5093692;28;20035;-77
2021/12/21 05:15:42;;;;;;;24.95;12.68;;;-5.80;98.00;;;;;;5098506;28;20051;-75
2021/12/21 05:18:09;;;;;;;24.77;11.93;;;-5.90;98.00;;;;;;5098459;28;20027;-78
2021/12/21 05:20:36;;;;;;;28.73;14.00;;;-5.90;98.00;;;;;;5098678;28;20032;-75
2021/12/21 05:23:02;;;;;;;22.42;12.68;;;-5.80;98.00;;;;;;5094903;28;20032;-75
2021/12/21 05:25:27;;;;;;;27.60;13.20;;;-5.90;98.00;;;;;;5098788;28;20081;-75
2021/12/21 05:27:53;;;;;;;26.58;13.52;;;-5.80;98.00;;;;;;5097869;28;21715;-76
2021/12/21 05:30:19;;;;;;;24.52;12.00;;;-5.90;98.00;;;;;;5096309;28;20095;-75
2021/12/21 05:32:45;;;;;;;34.63;15.45;;;-5.90;98.00;;;;;;5097156;28;20021;-74
2021/12/21 05:35:16;;;;;;;29.52;14.98;;;-5.90;98.00;;;;;;5097969;28;20073;-74
2021/12/21 05:37:42;;;;;;;32.83;16.00;;;-5.80;98.00;;;;;;5094776;28;20024;-74
2021/12/21 05:40:14;;;;;;;39.38;16.83;;;-5.70;98.00;;;;;;5097577;28;20016;-74
2021/12/21 05:42:41;;;;;;;36.97;18.48;;;-5.60;97.30;;;;;;5097354;28;20052;-75
2021/12/21 05:45:11;;;;;;;30.90;16.10;;;-5.50;97.00;;;;;;5097382;28;20343;-75
2021/12/21 05:47:37;;;;;;;26.33;13.73;;;-5.40;97.60;;;;;;5096995;28;20073;-75
2021/12/21 05:50:07;;;;;;;28.00;14.00;;;-5.50;98.00;;;;;;5097764;28;20055;-75
2021/12/21 05:52:33;;;;;;;45.72;19.45;;;-5.50;97.80;;;;;;5096323;28;20062;-75
2021/12/21 05:54:58;;;;;;;36.83;15.95;;;-5.50;96.50;;;;;;5097681;28;20056;-76
2021/12/21 05:57:24;;;;;;;40.65;18.95;;;-5.20;96.00;;;;;;5097815;28;20103;-76
2021/12/21 05:59:50;;;;;;;34.97;16.73;;;-5.00;97.40;;;;;;5097463;28;20107;-75
2021/12/21 06:02:17;;;;;;;50.72;21.23;;;-5.10;98.00;;;;;;5098150;28;20036;-75
2021/12/21 06:04:43;;;;;;;39.25;17.00;;;-5.20;98.00;;;;;;5097023;28;20329;-75
2021/12/21 06:07:09;;;;;;;36.72;17.52;;;-5.10;96.30;;;;;;5096919;28;20371;-76
2021/12/21 06:09:34;;;;;;;22.95;11.02;;;-5.00;97.40;;;;;;5096928;28;20096;-76
2021/12/21 06:12:28;;;;;;;35.70;15.40;;;-4.60;95.60;;;;;;5097215;28;20123;-76
2021/12/21 06:28:03;;;;;;;21.65;9.93;;;-3.90;98.00;;;;;;5097759;28;20063;-74
2021/12/21 06:30:29;;;;;;;18.50;9.25;;;-3.70;98.00;;;;;;5097720;28;20078;-74
2021/12/21 06:32:55;;;;;;;23.67;10.10;;;-3.60;98.00;;;;;;5098006;28;20355;-74
2021/12/21 06:35:20;;;;;;;18.73;10.05;;;-3.60;98.00;;;;;;5097641;28;20414;-75
2021/12/21 06:37:46;;;;;;;22.70;9.57;;;-3.60;98.00;;;;;;5096840;28;20028;-76
2021/12/21 06:40:12;;;;;;;22.05;10.80;;;-3.40;98.00;;;;;;5097454;28;20438;-77
2021/12/21 06:42:41;;;;;;;23.17;11.00;;;-3.40;98.00;;;;;;5096355;28;20040;-76
2021/12/21 06:45:14;;;;;;;19.30;10.80;;;-3.40;98.00;;;;;;5097895;28;20432;-76
2021/12/21 06:53:09;;;;;;;;;;;-3.70;98.00;;;;;;5080443;28;20111;-77
2021/12/21 06:55:35;;;;;;;24.60;12.70;;;-3.90;98.00;;;;;;5097592;28;20273;-76
2021/12/21 06:58:01;;;;;;;22.52;12.07;;;-4.10;98.00;;;;;;5097052;28;20436;-76
2021/12/21 07:00:26;;;;;;;18.75;11.60;;;-4.40;98.00;;;;;;5096530;28;20028;-76
2021/12/21 07:02:52;;;;;;;28.67;13.93;;;-4.60;98.00;;;;;;5096250;28;20024;-76
2021/12/21 07:05:18;;;;;;;26.08;15.75;;;-4.70;98.00;;;;;;5096933;28;20359;-75
2021/12/21 07:07:44;;;;;;;34.83;17.92;;;-4.90;98.00;;;;;;5095871;28;20111;-75
2021/12/21 07:10:19;;;;;;;35.20;17.80;;;-4.90;98.00;;;;;;5096658;28;20028;-76
2021/12/21 07:20:33;;;;;;;32.13;15.73;;;-4.60;98.00;;;;;;5097208;28;20070;-76
2021/12/21 07:22:59;;;;;;;28.38;13.88;;;-4.90;98.00;;;;;;5095742;28;20031;-75
2021/12/21 07:25:27;;;;;;;25.83;13.60;;;-5.10;98.00;;;;;;5096802;28;20024;-76
2021/12/21 07:27:54;;;;;;;26.38;13.27;;;-5.20;98.00;;;;;;5095798;28;20099;-75
2021/12/21 07:30:20;;;;;;;28.20;14.23;;;-5.30;98.00;;;;;;5096512;28;20024;-76
2021/12/21 07:32:46;;;;;;;24.33;13.38;;;-5.30;98.00;;;;;;5095214;28;20112;-76
2021/12/21 07:35:11;;;;;;;29.40;16.13;;;-5.30;98.00;;;;;;5096967;28;20044;-76
2021/12/21 07:37:37;;;;;;;40.15;20.40;;;-5.40;98.00;;;;;;5094152;28;20024;-76
2021/12/21 07:40:05;;;;;;;62.50;29.30;;;-5.40;98.00;;;;;;5095126;28;20032;-76
2021/12/21 07:42:31;;;;;;;83.60;43.67;;;-5.40;98.00;;;;;;5096599;28;20036;-76
2021/12/21 07:44:58;;;;;;;58.78;31.17;;;-5.40;98.00;;;;;;5096296;28;20032;-76
2021/12/21 07:47:25;;;;;;;57.22;29.35;;;-5.40;98.00;;;;;;5095542;28;20031;-75
2021/12/21 07:49:51;;;;;;;61.90;33.92;;;-5.50;98.00;;;;;;5096161;28;20024;-76
2021/12/21 07:52:18;;;;;;;60.10;34.00;;;-5.60;98.00;;;;;;5094044;28;20038;-76
2021/12/21 07:54:44;;;;;;;58.10;34.35;;;-5.60;98.00;;;;;;5095573;28;20028;-75
2021/12/21 07:57:09;;;;;;;53.58;30.15;;;-5.60;98.00;;;;;;5095644;28;20104;-76
2021/12/21 07:59:37;;;;;;;34.08;20.88;;;-5.60;98.00;;;;;;5096248;28;20140;-76
2021/12/21 08:02:03;;;;;;;37.67;20.63;;;-5.60;98.00;;;;;;5094020;28;20324;-75
2021/12/21 08:04:29;;;;;;;30.30;17.75;;;-5.60;98.00;;;;;;5095338;28;20024;-76
2021/12/21 08:06:59;;;;;;;35.17;17.70;;;-5.60;98.00;;;;;;5093880;28;20324;-75
2021/12/21 08:09:33;;;;;;;41.85;21.20;;;-5.40;98.00;;;;;;5096123;28;20067;-75
2021/12/21 08:14:36;;;;;;;43.92;24.38;;;-5.50;98.00;;;;;;5096209;28;20004;-76
2021/12/21 08:17:01;;;;;;;38.95;22.20;;;-5.60;98.00;;;;;;5095369;28;20090;-76
2021/12/21 08:19:27;;;;;;;50.70;26.98;;;-5.60;98.00;;;;;;5095241;28;20365;-76
2021/12/21 08:21:53;;;;;;;36.55;21.48;;;-5.60;98.00;;;;;;5094668;28;20099;-76
2021/12/21 08:24:18;;;;;;;41.03;23.42;;;-5.50;98.00;;;;;;5094332;28;20059;-76
2021/12/21 08:26:44;;;;;;;52.80;28.25;;;-5.40;98.00;;;;;;5095570;28;20063;-77
2021/12/21 08:29:11;;;;;;;50.88;28.23;;;-5.40;98.00;;;;;;5095764;28;20046;-77
2021/12/21 08:31:36;;;;;;;47.85;25.25;;;-5.50;98.00;;;;;;5095952;28;20023;-77
2021/12/21 08:34:02;;;;;;;42.58;24.67;;;-5.40;98.00;;;;;;5094180;28;21833;-77
2021/12/21 08:36:28;;;;;;;50.20;24.65;;;-5.00;97.30;;;;;;5095831;28;20113;-77
2021/12/21 08:38:54;;;;;;;48.22;25.02;;;-4.30;94.10;;;;;;5097246;28;20028;-76
2021/12/21 08:41:22;;;;;;;43.58;25.98;;;-3.80;97.00;;;;;;5099631;28;20028;-77
2021/12/21 08:43:48;;;;;;;38.47;23.92;;;-3.20;94.20;;;;;;5098894;28;20060;-77
2021/12/21 08:46:13;;;;;;;34.60;21.73;;;-2.00;92.50;;;;;;5098687;28;20020;-77
2021/12/21 08:48:39;;;;;;;36.97;23.52;;;-0.90;94.80;;;;;;5099128;28;20024;-77
2021/12/21 08:51:05;;;;;;;33.72;16.63;;;-0.30;98.00;;;;;;5099945;28;20413;-77
2021/12/21 08:53:31;;;;;;;22.48;11.18;;;0.50;98.00;;;;;;5098384;28;20035;-76
2021/12/21 08:55:57;;;;;;;25.88;15.00;;;1.20;98.00;;;;;;5099584;28;20032;-77
2021/12/21 08:58:23;;;;;;;32.45;19.13;;;1.50;98.00;;;;;;5099730;28;20016;-78
2021/12/21 09:00:50;;;;;;;75.43;29.27;;;0.70;96.50;;;;;;5098799;28;20032;-78
2021/12/21 09:03:17;;;;;;;58.33;26.73;;;1.00;98.00;;;;;;5099891;28;20020;-78
2021/12/21 09:05:43;;;;;;;38.30;20.92;;;1.30;98.00;;;;;;5098522;28;20298;-78
2021/12/21 09:08:10;;;;;;;37.85;20.40;;;1.20;97.30;;;;;;5098044;28;20040;-78
2021/12/21 09:10:36;;;;;;;23.30;13.10;;;2.20;98.00;;;;;;5099028;28;20032;-78
2021/12/21 09:13:02;;;;;;;19.33;11.30;;;2.40;95.10;;;;;;5098320;28;20419;-78
2021/12/21 09:15:30;;;;;;;19.67;12.98;;;2.40;93.90;;;;;;5099703;28;20043;-78
2021/12/21 09:17:56;;;;;;;22.73;13.60;;;2.90;93.80;;;;;;5098540;28;20028;-76
2021/12/21 09:20:24;;;;;;;25.05;14.60;;;2.30;90.40;;;;;;5099697;28;20035;-76
2021/12/21 09:22:51;;;;;;;24.42;15.48;;;1.70;93.90;;;;;;5097750;28;20028;-75
2021/12/21 09:25:17;;;;;;;22.92;14.55;;;1.70;96.70;;;;;;5099158;28;20055;-76
2021/12/21 09:27:44;;;;;;;26.27;14.50;;;1.70;94.80;;;;;;5098471;28;20051;-75
2021/12/21 09:30:15;;;;;;;21.08;13.88;;;1.80;95.70;;;;;;5099251;28;20024;-76
2021/12/21 09:32:40;;;;;;;20.27;12.07;;;2.10;95.40;;;;;;5098117;28;20047;-78
2021/12/21 09:35:07;;;;;;;17.58;11.88;;;2.10;94.50;;;;;;5099202;28;20405;-78
2021/12/21 09:37:33;;;;;;;21.17;12.73;;;2.40;96.60;;;;;;5097644;28;20095;-78
2021/12/21 09:39:59;;;;;;;18.80;10.80;;;2.90;95.50;;;;;;5099282;28;20028;-78
2021/12/21 09:42:30;;;;;;;19.20;10.65;;;3.40;92.30;;;;;;5097943;28;20020;-77
2021/12/21 09:44:58;;;;;;;20.02;10.98;;;3.60;92.90;;;;;;5098536;28;20032;-77
2021/12/21 09:47:24;;;;;;;13.90;9.30;;;3.50;91.30;;;;;;5098669;28;20024;-78
2021/12/21 09:49:50;;;;;;;19.23;11.00;;;3.50;89.90;;;;;;5097511;28;20089;-78
2021/12/21 09:52:21;;;;;;;16.88;8.70;;;3.40;91.00;;;;;;5097670;28;20067;-78
2021/12/21 09:54:48;;;;;;;14.10;8.40;;;3.20;92.50;;;;;;5098487;28;20115;-78
2021/12/21 09:57:16;;;;;;;15.98;9.02;;;3.80;92.30;;;;;;5098807;28;20030;-78
2021/12/21 09:59:44;;;;;;;13.40;8.48;;;4.40;90.00;;;;;;5096861;28;20020;-77
2021/12/21 10:02:10;;;;;;;17.60;9.02;;;4.30;89.50;;;;;;5098716;28;20100;-77
2021/12/21 10:04:47;;;;;;;15.32;9.40;;;4.30;87.80;;;;;;5096964;28;20051;-78
2021/12/21 10:07:15;;;;;;;20.90;9.35;;;3.70;89.10;;;;;;5084856;28;20017;-77
2021/12/21 10:09:43;;;;;;;13.88;8.07;;;3.90;90.20;;;;;;5097216;28;20044;-78
2021/12/21 10:12:13;;;;;;;13.07;7.60;;;4.20;90.10;;;;;;5098301;28;20028;-77
2021/12/21 10:14:40;;;;;;;12.55;7.13;;;4.10;87.60;;;;;;5096853;28;20024;-77
2021/12/21 10:17:08;;;;;;;13.27;7.32;;;4.10;88.20;;;;;;5096812;28;20031;-78
2021/12/21 10:19:35;;;;;;;12.27;7.40;;;4.10;87.50;;;;;;5096740;28;20024;-78
2021/12/21 10:22:13;;;;;;;14.88;7.53;;;4.30;87.10;;;;;;5097089;28;20437;-76
2021/12/21 10:24:50;;;;;;;14.85;7.93;;;4.60;88.60;;;;;;5097993;28;20020;-77
2021/12/21 10:27:18;;;;;;;12.10;7.40;;;4.90;85.20;;;;;;5098288;28;20069;-77
2021/12/21 10:29:51;;;;;;;15.25;7.65;;;4.70;84.70;;;;;;5097360;28;20020;-77
2021/12/21 10:32:26;;;;;;;12.10;7.20;;;4.70;85.50;;;;;;5098136;28;20020;-77
2021/12/21 10:35:02;;;;;;;12.13;7.20;;;4.80;84.20;;;;;;5097898;28;20081;-78
2021/12/21 10:37:37;;;;;;;13.50;6.93;;;5.10;84.70;;;;;;5096016;28;20052;-77
2021/12/21 10:40:04;;;;;;;16.90;6.90;;;5.30;84.60;;;;;;5097599;28;20100;-77
2021/12/21 10:42:29;;;;;;;13.45;8.70;;;5.50;82.40;;;;;;5097791;28;20035;-78
2021/12/21 10:45:05;;;;;;;16.65;9.38;;;4.70;83.70;;;;;;5097548;28;20024;-77
2021/12/21 10:47:33;;;;;;;14.93;8.45;;;4.30;85.60;;;;;;5097938;28;20039;-77
2021/12/21 10:49:59;;;;;;;14.05;8.60;;;4.10;84.90;;;;;;5097437;28;20036;-78
2021/12/21 10:52:25;;;;;;;18.25;8.90;;;4.00;85.80;;;;;;5095487;28;20084;-77
2021/12/21 10:54:51;;;;;;;17.73;9.05;;;3.90;85.80;;;;;;5095979;28;20427;-77
2021/12/21 10:57:22;;;;;;;13.73;7.70;;;4.30;86.00;;;;;;5097084;28;20028;-78
2021/12/21 10:59:53;;;;;;;16.42;8.45;;;4.10;85.40;;;;;;5095988;28;20325;-77
2021/12/21 11:02:25;;;;;;;18.27;10.00;;;4.00;86.50;;;;;;5097406;28;20052;-77
2021/12/21 11:05:18;;;;;;;18.38;10.10;;;3.60;86.50;;;;;;5097480;28;20028;-77
2021/12/21 11:07:59;;;;;;;33.43;14.43;;;3.70;86.70;;;;;;5094996;28;20109;-77
2021/12/21 11:10:32;;;;;;;19.65;10.73;;;3.60;87.30;;;;;;5097363;28;20032;-77
2021/12/21 11:13:03;;;;;;;15.07;9.35;;;3.70;87.60;;;;;;5096154;28;20022;-77
2021/12/21 11:15:37;;;;;;;18.48;11.00;;;3.90;86.40;;;;;;5095849;28;20028;-77
2021/12/21 11:18:06;;;;;;;21.42;11.13;;;3.70;86.70;;;;;;5096280;28;20027;-77
2021/12/21 11:20:33;;;;;;;18.10;10.93;;;3.70;87.60;;;;;;5097338;28;20016;-77
2021/12/21 11:22:58;;;;;;;16.48;10.57;;;3.90;88.70;;;;;;5094790;28;20494;-77
2021/12/21 11:25:24;;;;;;;16.58;10.60;;;4.10;86.60;;;;;;5096961;28;20036;-77
2021/12/21 11:27:51;;;;;;;24.63;12.52;;;4.40;86.20;;;;;;5096009;28;20020;-77
2021/12/21 11:30:20;;;;;;;19.30;11.90;;;4.60;85.60;;;;;;5095749;28;20028;-77
2021/12/21 11:32:49;;;;;;;23.10;12.68;;;4.70;85.00;;;;;;5097071;28;20028;-77
2021/12/21 11:37:48;;;;;;;21.38;12.82;;;5.10;84.40;;;;;;5095768;28;20026;-77
2021/12/21 11:40:19;;;;;;;18.90;11.52;;;4.50;83.90;;;;;;5096643;28;20023;-77
2021/12/21 11:42:51;;;;;;;18.70;11.07;;;3.90;85.80;;;;;;5096213;28;20413;-77
2021/12/21 11:45:45;;;;;;;19.90;13.02;;;3.60;87.00;;;;;;5096207;28;20129;-77
2021/12/21 11:48:10;;;;;;;22.33;12.80;;;3.60;88.20;;;;;;5095407;28;20060;-78
2021/12/21 11:50:39;;;;;;;23.83;13.77;;;3.50;89.40;;;;;;5095512;28;20376;-77
2021/12/21 11:53:08;;;;;;;21.50;12.82;;;3.80;89.10;;;;;;5095317;28;20028;-77
2021/12/21 11:55:37;;;;;;;18.60;12.13;;;4.10;87.50;;;;;;5096641;28;20020;-77
2021/12/21 11:58:38;;;;;;;21.80;13.10;;;3.90;88.00;;;;;;5095363;28;20024;-77
2021/12/21 12:01:16;;;;;;;21.08;12.63;;;4.10;87.30;;;;;;5073764;28;20074;-78
2021/12/21 12:03:52;;;;;;;25.88;13.95;;;3.90;86.90;;;;;;5096456;28;20031;-77
2021/12/21 12:06:18;;;;;;;21.73;13.85;;;3.60;88.50;;;;;;5096528;28;20016;-77
2021/12/21 12:09:03;;;;;;;23.08;13.20;;;3.70;89.00;;;;;;5094950;28;20097;-78
2021/12/21 12:11:42;;;;;;;19.75;12.95;;;3.60;88.80;;;;;;5095982;28;20081;-77
2021/12/21 12:14:14;;;;;;;24.73;13.65;;;3.30;88.80;;;;;;5094892;28;20076;-75
2021/12/21 12:16:46;;;;;;;21.73;13.93;;;2.90;90.10;;;;;;5094246;28;20051;-76
2021/12/21 12:19:20;;;;;;;25.52;15.65;;;2.90;92.20;;;;;;5095977;28;20071;-75
2021/12/21 12:22:00;;;;;;;25.10;14.73;;;2.80;91.20;;;;;;5094687;28;20028;-75
2021/12/21 12:24:38;;;;;;;21.17;13.85;;;2.90;92.80;;;;;;5094833;28;20024;-75
2021/12/21 12:27:10;;;;;;;22.35;13.82;;;3.10;90.90;;;;;;5095593;28;20375;-77
2021/12/21 12:29:50;;;;;;;28.90;16.02;;;3.00;90.30;;;;;;5095610;28;20032;-77
2021/12/21 12:32:29;;;;;;;26.38;14.27;;;3.10;91.60;;;;;;5095407;28;20047;-77
2021/12/21 12:35:03;;;;;;;20.63;11.45;;;3.10;91.00;;;;;;5095619;28;20048;-77
2021/12/21 12:37:28;;;;;;;;;;;3.40;90.40;;;;;;5094832;28;20141;-76
2021/12/21 12:40:04;;;;;;;20.60;11.70;;;3.40;89.20;;;;;;5076011;28;20028;-77
2021/12/21 12:42:32;;;;;;;20.80;10.63;;;3.30;89.60;;;;;;5091575;28;20027;-76
2021/12/21 12:45:13;;;;;;;19.67;11.00;;;3.60;90.20;;;;;;5094720;28;20027;-77
2021/12/21 12:47:44;;;;;;;16.88;10.45;;;3.60;88.50;;;;;;5093913;28;20088;-77
2021/12/21 12:50:19;;;;;;;20.33;11.20;;;3.60;88.60;;;;;;5095402;28;20424;-76
2021/12/21 12:52:50;;;;;;;20.15;11.10;;;3.60;88.30;;;;;;5094226;28;20028;-77
2021/12/21 12:55:16;;;;;;;15.57;10.27;;;3.60;88.40;;;;;;5095353;28;20073;-77
2021/12/21 12:57:58;;;;;;;18.73;10.35;;;3.30;88.80;;;;;;5093416;28;20020;-77
2021/12/21 13:00:31;;;;;;;14.70;9.48;;;3.60;89.20;;;;;;5094851;28;20051;-76
2021/12/21 13:03:03;;;;;;;15.40;10.57;;;3.60;88.10;;;;;;5094234;28;20420;-77
2021/12/21 13:05:37;;;;;;;18.33;10.35;;;3.60;88.40;;;;;;5095466;28;20028;-77
2021/12/21 13:08:16;;;;;;;19.10;11.00;;;3.80;88.20;;;;;;5093159;28;20079;-77
2021/12/21 13:10:45;;;;;;;16.85;10.80;;;3.80;87.90;;;;;;5094241;28;20028;-77
2021/12/21 13:13:12;;;;;;;18.45;11.13;;;3.60;87.50;;;;;;5095230;28;20051;-76
2021/12/21 13:15:41;;;;;;;19.00;11.18;;;3.40;89.10;;;;;;5092528;28;20020;-77
2021/12/21 13:18:12;;;;;;;18.95;12.35;;;3.30;88.80;;;;;;5093122;28;20494;-77
2021/12/21 13:20:40;;;;;;;16.98;11.07;;;2.90;89.70;;;;;;5092226;28;20032;-77
2021/12/21 13:23:10;;;;;;;21.88;12.25;;;2.90;90.60;;;;;;5091236;28;20036;-77
2021/12/21 13:25:36;;;;;;;21.52;13.30;;;2.80;90.60;;;;;;5093121;28;20032;-76
2021/12/21 13:28:12;;;;;;;19.05;12.20;;;2.50;91.50;;;;;;5097135;28;20111;-77
2021/12/21 13:30:49;;;;;;;19.23;11.20;;;2.40;92.10;;;;;;5097548;28;20107;-77
2021/12/21 13:33:23;;;;;;;17.50;10.90;;;2.60;91.60;;;;;;5096328;28;20350;-77
2021/12/21 13:35:51;;;;;;;18.13;11.25;;;2.60;92.10;;;;;;5096746;28;20044;-77
2021/12/21 13:38:18;;;;;;;21.05;11.35;;;2.40;92.00;;;;;;5095800;28;20039;-77
2021/12/21 13:41:08;;;;;;;25.73;13.73;;;2.40;92.70;;;;;;5096156;28;20060;-77
2021/12/21 13:43:37;;;;;;;16.80;11.23;;;2.20;93.20;;;;;;5096063;28;20024;-77
2021/12/21 13:46:08;;;;;;;20.55;11.95;;;2.30;93.80;;;;;;5096640;28;20047;-77
2021/12/21 13:48:36;;;;;;;19.85;11.35;;;2.30;92.40;;;;;;5094204;28;20420;-77
2021/12/21 13:51:16;;;;;;;21.45;13.00;;;2.10;93.00;;;;;;5096075;28;20290;-77
2021/12/21 13:53:51;;;;;;;24.00;12.35;;;1.90;93.60;;;;;;5095091;28;20020;-77
2021/12/21 13:56:20;;;;;;;19.75;12.25;;;1.80;94.40;;;;;;5096318;28;20452;-77
2021/12/21 13:58:46;;;;;;;16.10;10.35;;;1.90;94.30;;;;;;5096391;28;20028;-77
2021/12/21 14:01:20;;;;;;;18.95;10.90;;;1.90;92.90;;;;;;5096331;28;20035;-77